createdAt,value
2019-04-29T00:02:00.632Z,21.77
2019-04-29T00:04:29.863Z,20.27
2019-04-29T00:06:59.069Z,21.10
2019-04-29T00:09:30.871Z,20.40
2019-04-29T00:11:57.582Z,21.13
2019-04-29T00:14:26.766Z,21.60
2019-04-29T00:17:00.354Z,20.03
2019-04-29T00:19:36.786Z,19.93
2019-04-29T00:22:06.037Z,19.30
2019-04-29T00:24:35.207Z,22.73
2019-04-29T00:27:04.438Z,20.70
2019-04-29T00:29:36.206Z,18.83
2019-04-29T00:32:05.492Z,20.07
2019-04-29T00:34:34.730Z,18.73
2019-04-29T00:37:09.204Z,18.20
2019-04-29T00:39:45.805Z,19.07
2019-04-29T00:42:22.402Z,19.33
2019-04-29T00:44:51.658Z,19.90
2019-04-29T00:47:20.898Z,21.47
2019-04-29T00:49:50.158Z,20.97
2019-04-29T00:52:19.368Z,20.77
2019-04-29T00:54:52.590Z,19.40
2019-04-29T00:57:21.815Z,19.87
2019-04-29T00:59:51.017Z,21.10
2019-04-29T01:02:20.208Z,20.63
2019-04-29T01:04:49.409Z,20.20
2019-04-29T01:07:18.682Z,20.93
2019-04-29T01:09:47.842Z,21.10
2019-04-29T01:12:17.012Z,20.87
2019-04-29T01:14:46.274Z,20.77
2019-04-29T01:17:15.498Z,22.10
2019-04-29T01:19:44.728Z,21.03
2019-04-29T01:22:13.928Z,20.27
2019-04-29T01:24:43.189Z,21.27
2019-04-29T01:27:17.970Z,20.10
2019-04-29T01:29:47.172Z,18.80
2019-04-29T01:32:16.360Z,17.93
2019-04-29T01:34:50.780Z,17.50
2019-04-29T01:37:19.969Z,17.20
2019-04-29T01:40:00.617Z,16.73
2019-04-29T01:42:32.639Z,15.40
2019-04-29T01:45:01.925Z,16.87
2019-04-29T01:47:31.126Z,14.60
2019-04-29T01:50:00.366Z,15.47
2019-04-29T01:52:29.604Z,14.67
2019-04-29T01:54:58.774Z,14.17
2019-04-29T01:57:28.017Z,14.17
2019-04-29T01:59:57.204Z,13.97
2019-04-29T02:02:26.411Z,14.23
2019-04-29T02:04:55.610Z,13.80
2019-04-29T02:07:24.826Z,14.73
2019-04-29T02:10:04.196Z,13.00
2019-04-29T02:12:33.373Z,13.47
2019-04-29T02:15:02.576Z,13.80
2019-04-29T02:17:31.820Z,12.80
2019-04-29T02:20:01.034Z,13.10
2019-04-29T02:22:34.704Z,13.90
2019-04-29T02:25:11.372Z,13.40
2019-04-29T02:27:40.577Z,13.53
2019-04-29T02:30:09.829Z,12.27
2019-04-29T02:32:39.010Z,13.40
2019-04-29T02:35:08.219Z,13.63
2019-04-29T02:37:38.489Z,14.07
2019-04-29T02:40:12.118Z,13.07
2019-04-29T02:42:48.712Z,13.07
2019-04-29T02:45:21.712Z,12.27
2019-04-29T02:47:50.924Z,12.37
2019-04-29T02:50:20.106Z,11.73
2019-04-29T02:52:49.378Z,13.10
2019-04-29T02:55:22.843Z,12.80
2019-04-29T02:57:59.429Z,13.23
2019-04-29T03:01:34.946Z,12.87
2019-04-29T03:04:11.630Z,11.77
2019-04-29T03:06:40.814Z,11.57
2019-04-29T03:09:10.048Z,12.23
2019-04-29T03:11:39.306Z,13.10
2019-04-29T03:14:08.490Z,10.77
2019-04-29T03:16:37.778Z,12.23
2019-04-29T03:19:10.612Z,11.40
2019-04-29T03:21:44.165Z,10.40
2019-04-29T03:24:14.649Z,9.93
2019-04-29T03:26:43.827Z,11.07
2019-04-29T03:29:28.716Z,9.73
2019-04-29T03:31:57.894Z,10.20
2019-04-29T03:34:28.366Z,10.50
2019-04-29T03:36:57.635Z,10.17
2019-04-29T03:39:26.797Z,10.00
2019-04-29T03:41:55.990Z,10.50
2019-04-29T03:44:26.538Z,12.30
2019-04-29T03:46:55.641Z,11.27
2019-04-29T03:49:24.829Z,10.70
2019-04-29T03:51:54.056Z,10.63
2019-04-29T03:54:23.281Z,11.63
2019-04-29T03:56:52.444Z,11.47
2019-04-29T03:59:21.669Z,11.70
2019-04-29T04:01:55.237Z,11.93
2019-04-29T04:04:30.117Z,12.80
2019-04-29T04:07:04.122Z,12.23
2019-04-29T04:09:34.129Z,12.70
2019-04-29T04:12:03.394Z,13.47
2019-04-29T04:14:32.512Z,13.07
2019-04-29T04:17:07.906Z,13.40
2019-04-29T04:19:37.076Z,12.33
2019-04-29T04:22:06.405Z,11.80
2019-04-29T04:24:35.585Z,11.10
2019-04-29T04:27:04.778Z,11.70
2019-04-29T04:29:33.976Z,11.63
2019-04-29T04:32:03.201Z,10.47
2019-04-29T04:34:32.388Z,10.57
2019-04-29T04:37:02.305Z,10.70
2019-04-29T04:39:31.518Z,10.07
2019-04-29T04:42:00.808Z,10.50
2019-04-29T04:44:35.687Z,9.30
2019-04-29T04:47:04.896Z,8.57
2019-04-29T04:49:37.032Z,8.97
2019-04-29T04:52:06.337Z,9.00
2019-04-29T04:54:35.569Z,9.47
2019-04-29T04:57:04.761Z,9.53
2019-04-29T04:59:33.962Z,8.77
2019-04-29T05:02:03.210Z,8.43
2019-04-29T05:04:32.377Z,9.43
2019-04-29T05:07:01.585Z,8.50
2019-04-29T05:09:32.005Z,8.13
2019-04-29T05:12:01.190Z,8.90
2019-04-29T05:14:30.362Z,9.33
2019-04-29T05:17:00.264Z,9.20
2019-04-29T05:19:29.493Z,8.60
2019-04-29T05:21:58.665Z,9.10
2019-04-29T05:24:29.224Z,9.03
2019-04-29T05:26:58.410Z,9.17
2019-04-29T05:29:28.748Z,8.43
2019-04-29T05:31:56.856Z,7.07
2019-04-29T05:34:26.054Z,6.27
2019-04-29T05:37:06.437Z,5.90
2019-04-29T05:39:37.900Z,6.20
2019-04-29T05:42:15.206Z,6.90
2019-04-29T05:44:40.724Z,5.63
2019-04-29T05:47:14.285Z,5.77
2019-04-29T05:49:47.066Z,4.33
2019-04-29T05:52:23.624Z,3.50
2019-04-29T05:54:52.840Z,3.07
2019-04-29T05:57:25.393Z,2.93
2019-04-29T05:59:51.223Z,2.77
2019-04-29T06:02:24.033Z,3.23
2019-04-29T06:04:52.460Z,3.07
2019-04-29T06:07:21.595Z,3.00
2019-04-29T06:09:48.013Z,3.20
2019-04-29T06:12:17.187Z,2.77
2019-04-29T06:14:50.028Z,3.10
2019-04-29T06:17:21.651Z,3.13
2019-04-29T06:19:50.870Z,3.73
2019-04-29T06:22:20.072Z,2.75
2019-04-29T06:24:50.784Z,2.95
2019-04-29T06:27:19.997Z,2.87
2019-04-29T06:29:49.200Z,3.02
2019-04-29T06:32:20.303Z,3.15
2019-04-29T06:34:47.672Z,3.22
2019-04-29T06:37:16.929Z,2.87
2019-04-29T06:39:47.399Z,3.20
2019-04-29T06:42:19.501Z,3.37
2019-04-29T06:44:48.966Z,2.92
2019-04-29T06:47:17.097Z,3.70
2019-04-29T06:49:47.255Z,3.02
2019-04-29T06:52:16.530Z,2.92
2019-04-29T06:54:45.812Z,3.35
2019-04-29T06:57:15.035Z,3.17
2019-04-29T06:59:47.593Z,3.27
2019-04-29T07:02:14.370Z,3.83
2019-04-29T07:04:46.643Z,3.47
2019-04-29T07:07:15.847Z,3.05
2019-04-29T07:09:46.388Z,3.20
2019-04-29T07:12:16.902Z,3.92
2019-04-29T07:14:46.109Z,3.30
2019-04-29T07:17:16.637Z,3.70
2019-04-29T07:19:45.823Z,3.65
2019-04-29T07:22:16.266Z,3.30
2019-04-29T07:24:45.542Z,3.67
2019-04-29T07:27:14.727Z,3.72
2019-04-29T07:29:43.943Z,3.67
2019-04-29T07:32:13.214Z,3.50
2019-04-29T07:34:42.530Z,3.72
2019-04-29T07:37:11.829Z,3.17
2019-04-29T07:39:41.118Z,3.17
2019-04-29T07:42:10.465Z,3.50
2019-04-29T07:44:48.852Z,3.27
2019-04-29T07:47:17.504Z,3.70
2019-04-29T07:49:47.295Z,3.22
2019-04-29T07:52:16.201Z,3.55
2019-04-29T07:54:48.267Z,3.60
2019-04-29T07:57:18.076Z,3.50
2019-04-29T07:59:46.267Z,3.37
2019-04-29T08:02:15.511Z,3.62
2019-04-29T08:04:44.755Z,3.42
2019-04-29T08:07:13.999Z,3.80
2019-04-29T08:09:44.217Z,3.50
2019-04-29T08:12:12.653Z,3.77
2019-04-29T08:14:41.887Z,3.42
2019-04-29T08:17:11.229Z,3.30
2019-04-29T08:19:40.493Z,3.47
2019-04-29T08:22:09.747Z,3.65
2019-04-29T08:24:38.978Z,3.27
2019-04-29T08:27:10.746Z,3.72
2019-04-29T08:29:39.984Z,3.70
2019-04-29T08:32:11.827Z,3.47
2019-04-29T08:34:41.094Z,3.27
2019-04-29T08:37:10.329Z,3.70
2019-04-29T08:39:39.583Z,3.80
2019-04-29T08:42:11.392Z,3.65
2019-04-29T08:45:22.287Z,3.60
2019-04-29T08:47:51.663Z,3.50
2019-04-29T08:50:22.326Z,3.00
2019-04-29T08:52:51.583Z,3.35
2019-04-29T08:55:26.734Z,3.95
2019-04-29T08:57:55.085Z,3.50
2019-04-29T09:00:24.377Z,3.37
2019-04-29T09:02:53.734Z,3.30
2019-04-29T09:05:23.006Z,3.35
2019-04-29T09:07:57.414Z,3.67
2019-04-29T09:10:22.798Z,3.60
2019-04-29T09:12:53.254Z,3.90
2019-04-29T09:15:22.505Z,3.65
2019-04-29T09:17:51.721Z,3.72
2019-04-29T09:20:22.270Z,4.00
2019-04-29T09:22:55.428Z,4.17
2019-04-29T09:26:32.358Z,5.20
2019-04-29T09:29:06.021Z,5.50
2019-04-29T09:31:35.330Z,10.05
2019-04-29T09:34:06.799Z,9.30
2019-04-29T09:36:35.079Z,10.88
2019-04-29T09:39:05.605Z,6.17
2019-04-29T09:41:41.160Z,9.13
2019-04-29T09:44:15.934Z,5.40
2019-04-29T09:46:45.224Z,4.15
2019-04-29T09:49:14.564Z,4.22
2019-04-29T09:51:43.921Z,7.33
2019-04-29T09:54:14.551Z,5.62
2019-04-29T09:56:44.016Z,5.50
2019-04-29T09:59:18.676Z,5.70
2019-04-29T10:01:56.208Z,5.47
2019-04-29T10:04:32.694Z,7.25
2019-04-29T10:07:01.909Z,4.53
2019-04-29T10:09:33.689Z,5.97
2019-04-29T10:12:02.893Z,17.23
2019-04-29T10:14:32.210Z,13.30
2019-04-29T10:17:05.929Z,7.53
2019-04-29T10:19:40.516Z,4.75
2019-04-29T10:22:09.803Z,7.83
2019-04-29T10:24:40.296Z,4.40
2019-04-29T10:27:10.570Z,2.70
2019-04-29T10:29:39.804Z,4.55
2019-04-29T10:32:09.229Z,4.37
2019-04-29T10:34:38.489Z,2.87
2019-04-29T10:37:10.124Z,3.33
2019-04-29T10:40:44.542Z,4.17
2019-04-29T10:43:20.412Z,3.60
2019-04-29T10:46:28.520Z,4.47
2019-04-29T10:49:05.314Z,4.60
2019-04-29T10:51:33.579Z,3.57
2019-04-29T10:54:02.902Z,3.70
2019-04-29T10:56:35.373Z,3.60
2019-04-29T10:59:04.619Z,4.20
2019-04-29T11:02:44.685Z,3.23
2019-04-29T11:05:30.779Z,3.60
2019-04-29T11:08:06.362Z,3.27
2019-04-29T11:10:35.588Z,3.40
2019-04-29T11:13:05.977Z,4.30
2019-04-29T11:15:36.020Z,4.50
2019-04-29T11:18:05.238Z,3.87
2019-04-29T11:20:34.803Z,3.43
2019-04-29T11:23:16.416Z,3.67
2019-04-29T11:26:16.728Z,4.07
2019-04-29T11:28:46.874Z,3.23
2019-04-29T11:31:19.067Z,3.70
2019-04-29T11:33:48.763Z,3.07
2019-04-29T11:36:19.552Z,3.60
2019-04-29T11:38:48.782Z,3.40
2019-04-29T11:41:19.918Z,3.27
2019-04-29T11:43:51.102Z,3.63
2019-04-29T11:46:21.051Z,3.80
2019-04-29T11:48:48.067Z,3.10
2019-04-29T11:51:22.665Z,3.13
2019-04-29T11:53:51.979Z,4.07
2019-04-29T11:56:21.169Z,3.50
2019-04-29T11:58:56.566Z,3.77
2019-04-29T12:01:38.608Z,4.07
2019-04-29T12:04:04.217Z,3.63
2019-04-29T12:06:35.869Z,4.27
2019-04-29T12:09:06.781Z,3.63
2019-04-29T12:11:36.417Z,3.90
2019-04-29T12:14:10.088Z,2.60
2019-04-29T12:16:44.136Z,3.00
2019-04-29T12:19:17.102Z,4.13
2019-04-29T12:21:46.218Z,3.20
2019-04-29T12:24:15.418Z,3.00
2019-04-29T12:26:44.721Z,2.73
2019-04-29T12:29:18.130Z,3.80
2019-04-29T12:31:51.187Z,2.93
2019-04-29T12:34:26.876Z,3.03
2019-04-29T12:36:56.681Z,2.90
2019-04-29T12:39:42.678Z,3.70
2019-04-29T12:42:08.060Z,3.03
2019-04-29T12:44:44.526Z,4.27
2019-04-29T12:47:26.363Z,3.43
2019-04-29T12:49:46.445Z,3.60
2019-04-29T12:52:13.971Z,3.00
2019-04-29T12:54:46.193Z,2.67
2019-04-29T12:57:18.925Z,3.37
2019-04-29T12:59:44.247Z,2.57
2019-04-29T13:02:19.934Z,3.40
2019-04-29T13:04:52.129Z,2.93
2019-04-29T13:07:26.684Z,3.13
2019-04-29T13:10:01.885Z,2.97
2019-04-29T13:12:30.356Z,2.43
2019-04-29T13:16:00.657Z,2.00
2019-04-29T13:18:43.640Z,4.00
2019-04-29T13:21:12.856Z,2.80
2019-04-29T13:23:55.526Z,3.40
2019-04-29T13:26:11.213Z,2.80
2019-04-29T13:28:59.165Z,2.37
2019-04-29T13:31:11.997Z,3.50
2019-04-29T13:33:46.068Z,3.27
2019-04-29T13:36:14.192Z,3.30
2019-04-29T13:38:44.548Z,3.00
2019-04-29T13:41:14.377Z,3.40
2019-04-29T13:43:42.970Z,3.30
2019-04-29T13:46:16.518Z,2.97
2019-04-29T13:48:56.007Z,2.83
2019-04-29T13:51:35.279Z,2.83
2019-04-29T13:53:55.432Z,2.17
2019-04-29T13:56:35.059Z,3.40
2019-04-29T13:58:53.212Z,3.37
2019-04-29T14:01:32.901Z,3.20
2019-04-29T14:04:00.382Z,3.20
2019-04-29T14:06:29.618Z,3.00
2019-04-29T14:08:59.972Z,2.37
2019-04-29T14:11:28.057Z,3.70
2019-04-29T14:13:57.222Z,2.77
2019-04-29T14:16:26.436Z,2.97
2019-04-29T14:18:55.661Z,2.50
2019-04-29T14:21:25.782Z,2.87
2019-04-29T14:23:54.060Z,1.83
2019-04-29T14:26:24.530Z,2.43
2019-04-29T14:28:53.801Z,2.13
2019-04-29T14:31:24.556Z,3.07
2019-04-29T14:34:00.289Z,3.20
2019-04-29T14:36:26.402Z,3.47
2019-04-29T14:38:54.938Z,3.30
2019-04-29T14:41:26.844Z,2.60
2019-04-29T14:44:04.206Z,2.53
2019-04-29T14:46:39.207Z,3.53
2019-04-29T14:49:11.849Z,2.80
2019-04-29T14:51:42.432Z,3.10
2019-04-29T14:54:12.438Z,2.90
2019-04-29T14:56:41.694Z,2.73
2019-04-29T14:59:12.158Z,3.20
2019-04-29T15:01:45.806Z,2.30
2019-04-29T15:04:18.824Z,3.30
2019-04-29T15:06:46.165Z,4.20
2019-04-29T15:09:18.165Z,3.73
2019-04-29T15:11:52.627Z,3.63
2019-04-29T15:14:27.740Z,3.40
2019-04-29T15:17:02.103Z,2.90
2019-04-29T15:19:38.180Z,3.70
2019-04-29T15:22:09.559Z,2.60
2019-04-29T15:24:38.709Z,3.47
2019-04-29T15:27:07.895Z,2.70
2019-04-29T15:29:37.133Z,3.73
2019-04-29T15:32:06.357Z,2.90
2019-04-29T15:34:35.608Z,3.00
2019-04-29T15:37:04.773Z,3.20
2019-04-29T15:39:35.252Z,3.10
2019-04-29T15:42:06.987Z,2.93
2019-04-29T15:44:35.006Z,3.27
2019-04-29T15:47:04.213Z,3.60
2019-04-29T15:49:34.697Z,3.90
2019-04-29T15:52:03.979Z,3.27
2019-04-29T15:54:33.157Z,3.17
2019-04-29T15:57:03.722Z,3.40
2019-04-29T15:59:47.516Z,3.27
2019-04-29T16:02:04.434Z,2.77
2019-04-29T16:04:34.105Z,3.00
2019-04-29T16:07:07.871Z,3.40
2019-04-29T16:09:51.852Z,3.50
2019-04-29T16:12:16.125Z,3.63
2019-04-29T16:14:49.213Z,3.40
2019-04-29T16:17:20.531Z,3.30
2019-04-29T16:19:48.331Z,2.87
2019-04-29T16:22:19.746Z,3.50
2019-04-29T16:24:46.897Z,3.87
2019-04-29T16:27:15.937Z,3.03
2019-04-29T16:29:46.133Z,3.60
2019-04-29T16:32:18.666Z,3.80
2019-04-29T16:34:47.870Z,3.67
2019-04-29T16:37:19.429Z,3.23
2019-04-29T16:39:46.280Z,2.90
2019-04-29T16:42:20.781Z,3.77
2019-04-29T16:44:50.068Z,3.17
2019-04-29T16:47:20.342Z,3.20
2019-04-29T16:49:49.553Z,3.27
2019-04-29T16:52:20.081Z,3.90
2019-04-29T16:54:49.291Z,3.07
2019-04-29T16:57:18.525Z,3.80
2019-04-29T16:59:48.151Z,3.87
2019-04-29T17:02:19.716Z,3.40
2019-04-29T17:04:48.733Z,2.67
2019-04-29T17:07:17.904Z,3.33
2019-04-29T17:10:09.858Z,3.60
2019-04-29T17:12:42.280Z,3.87
2019-04-29T17:15:24.319Z,3.23
2019-04-29T17:17:41.929Z,2.90
2019-04-29T17:20:11.168Z,3.83
2019-04-29T17:22:43.247Z,4.37
2019-04-29T17:25:09.569Z,5.20
2019-04-29T17:27:45.375Z,4.00
2019-04-29T17:30:19.001Z,4.10
2019-04-29T17:33:29.681Z,3.87
2019-04-29T17:35:58.975Z,3.30
2019-04-29T17:38:28.181Z,3.60
2019-04-29T17:40:57.357Z,3.80
2019-04-29T17:43:38.392Z,4.07
2019-04-29T17:46:10.482Z,3.80
2019-04-29T17:48:48.610Z,4.20
2019-04-29T17:51:14.459Z,4.27
2019-04-29T17:53:46.765Z,4.53
2019-04-29T17:57:08.651Z,4.37
2019-04-29T17:59:32.284Z,4.40
2019-04-29T18:02:21.641Z,3.73
2019-04-29T18:04:56.017Z,4.37
2019-04-29T18:07:25.204Z,4.40
2019-04-29T18:09:59.694Z,4.63
2019-04-29T18:12:28.898Z,4.40
2019-04-29T18:14:58.093Z,4.67
2019-04-29T18:17:31.149Z,4.50
2019-04-29T18:20:38.634Z,4.50
2019-04-29T18:23:19.189Z,4.63
2019-04-29T18:25:54.770Z,4.80
2019-04-29T18:28:22.481Z,5.13
2019-04-29T18:30:54.482Z,4.60
2019-04-29T18:33:23.086Z,5.30
2019-04-29T18:36:02.108Z,4.73
2019-04-29T18:38:21.833Z,5.23
2019-04-29T18:40:51.030Z,5.07
2019-04-29T18:43:23.193Z,5.63
2019-04-29T18:45:56.173Z,5.37
2019-04-29T18:48:21.662Z,5.03
2019-04-29T18:50:49.164Z,5.10
2019-04-29T18:53:18.391Z,5.63
2019-04-29T18:55:48.954Z,4.53
2019-04-29T18:58:18.131Z,5.23
2019-04-29T19:00:52.430Z,4.60
2019-04-29T19:03:25.251Z,5.40
2019-04-29T19:05:55.598Z,5.37
2019-04-29T19:08:26.773Z,5.37
2019-04-29T19:10:54.135Z,4.83
2019-04-29T19:13:25.891Z,4.90
2019-04-29T19:15:58.780Z,5.17
2019-04-29T19:18:22.825Z,5.00
2019-04-29T19:20:54.306Z,5.33
2019-04-29T19:23:29.491Z,5.07
2019-04-29T19:25:54.821Z,4.93
2019-04-29T19:28:30.564Z,4.30
2019-04-29T19:30:57.837Z,4.67
2019-04-29T19:33:25.301Z,4.83
2019-04-29T19:35:55.498Z,4.60
2019-04-29T19:38:25.419Z,4.73
2019-04-29T19:40:55.753Z,4.33
2019-04-29T19:43:25.878Z,5.30
2019-04-29T19:45:57.478Z,4.63
2019-04-29T19:48:27.033Z,4.33
2019-04-29T19:51:14.043Z,5.37
2019-04-29T19:53:25.151Z,4.30
2019-04-29T19:56:04.328Z,3.47
2019-04-29T19:58:29.895Z,4.33
2019-04-29T20:01:09.902Z,3.93
2019-04-29T20:03:35.878Z,3.90
2019-04-29T20:06:08.288Z,3.73
2019-04-29T20:08:48.277Z,3.77
2019-04-29T20:11:11.012Z,4.27
2019-04-29T20:13:31.605Z,4.00
2019-04-29T20:16:10.943Z,3.40
2019-04-29T20:18:40.621Z,3.63
2019-04-29T20:21:21.443Z,4.10
2019-04-29T20:23:42.971Z,3.77
2019-04-29T20:26:15.550Z,4.60
2019-04-29T20:28:42.813Z,4.07
2019-04-29T20:31:20.851Z,4.43
2019-04-29T20:33:46.994Z,4.60
2019-04-29T20:36:13.053Z,4.80
2019-04-29T20:38:45.680Z,4.90
2019-04-29T20:41:18.114Z,4.90
2019-04-29T20:43:46.385Z,4.87
2019-04-29T20:46:15.990Z,5.13
2019-04-29T20:48:45.550Z,4.70
2019-04-29T20:51:16.492Z,4.10
2019-04-29T20:53:47.631Z,4.70
2019-04-29T20:56:23.706Z,4.03
2019-04-29T20:58:46.924Z,4.27
2019-04-29T21:01:19.738Z,4.53
2019-04-29T21:03:53.776Z,5.20
2019-04-29T21:06:19.485Z,5.87
2019-04-29T21:08:51.180Z,5.27
2019-04-29T21:11:22.359Z,6.00
2019-04-29T21:13:58.261Z,5.90
2019-04-29T21:16:30.991Z,5.93
2019-04-29T21:19:08.507Z,5.40
2019-04-29T21:21:36.921Z,4.93
2019-04-29T21:24:08.442Z,5.20
2019-04-29T21:26:39.662Z,5.67
2019-04-29T21:29:03.180Z,6.37
2019-04-29T21:31:32.439Z,5.60
2019-04-29T21:34:01.648Z,5.50
2019-04-29T21:36:52.218Z,6.23
2019-04-29T21:39:26.911Z,5.23
2019-04-29T21:42:05.725Z,5.87
2019-04-29T21:44:33.730Z,4.97
2019-04-29T21:47:04.737Z,4.50
2019-04-29T21:49:43.276Z,4.70
2019-04-29T21:52:01.616Z,4.73
2019-04-29T21:54:30.794Z,4.87
2019-04-29T21:57:00.006Z,4.97
2019-04-29T21:59:29.201Z,4.73
2019-04-29T22:01:59.249Z,5.17
2019-04-29T22:04:27.676Z,4.57
2019-04-29T22:06:59.780Z,4.10
2019-04-29T22:09:35.988Z,4.50
2019-04-29T22:11:57.814Z,4.57
2019-04-29T22:14:29.520Z,5.70
2019-04-29T22:16:58.794Z,5.10
2019-04-29T22:19:28.236Z,5.50
2019-04-29T22:22:01.384Z,5.80
2019-04-29T22:24:27.680Z,5.23
2019-04-29T22:27:03.680Z,5.40
2019-04-29T22:29:26.902Z,5.97
2019-04-29T22:31:57.261Z,5.40
2019-04-29T22:34:26.501Z,5.13
2019-04-29T22:36:58.261Z,5.97
2019-04-29T22:39:29.985Z,5.63
2019-04-29T22:42:00.942Z,4.87
2019-04-29T22:44:30.139Z,4.43
2019-04-29T22:46:59.384Z,4.23
2019-04-29T22:49:29.284Z,4.50
2019-04-29T22:51:57.738Z,4.60
2019-04-29T22:54:26.972Z,4.00
2019-04-29T22:56:56.798Z,4.00
2019-04-29T22:59:27.454Z,4.00
2019-04-29T23:01:55.999Z,4.47
2019-04-29T23:04:25.943Z,3.90
2019-04-29T23:06:55.142Z,4.13
2019-04-29T23:09:24.352Z,4.33
2019-04-29T23:11:55.595Z,3.70
2019-04-29T23:14:22.749Z,3.90
2019-04-29T23:16:53.473Z,4.40
2019-04-29T23:19:22.708Z,3.90
2019-04-29T23:21:59.429Z,4.43
2019-04-29T23:24:34.683Z,4.80
2019-04-29T23:27:06.081Z,4.07
2019-04-29T23:29:37.200Z,4.10
2019-04-29T23:32:04.802Z,3.83
2019-04-29T23:34:31.556Z,4.00
2019-04-29T23:37:00.825Z,3.63
2019-04-29T23:39:30.006Z,3.73
2019-04-29T23:42:04.701Z,4.30
2019-04-29T23:44:29.678Z,3.63
2019-04-29T23:46:58.861Z,3.67
2019-04-29T23:49:28.057Z,3.30
2019-04-29T23:51:57.378Z,4.23
2019-04-29T23:54:26.672Z,3.53
2019-04-29T23:57:01.501Z,3.93
2019-04-29T23:59:30.757Z,3.63
